首页
METAR-TAF:

METAR-TAF

机场 :

琅勃拉邦國際機場

琅勃拉邦, 老挝

纬度: 19-53N, 经度: 102-08E, 海拔: 305米

当前天气观测

该预报发布于22分钟前的04:00 UTC
风速2节,风向西
温度 31°C
湿度 71%
气压 1007 hPa
能见度10公里或以上
散云层高于2000英尺
多云层高于8000英尺

METAR: VLLB 280400Z 27002KT 9999 SCT020 BKN080 31/25 Q1007 NOSIG

时间: 11:22 (04:22 UTC)

预报

该预报发布于5小时和22分钟前的23:00 UTC
预报有效从28日的 00点(UTC)到 28日的 24点(UTC)
风速4节,风向北转西北
能见度10公里或以上
散云层高于2000英尺
多云层高于8000英尺

TAF: VLLB 272300Z 2800/2824 34004KT 9999 SCT020 BKN080

超过4000个机场的气象观测和天气预报(METAR&TAF报告)。

可查询的气象台以黄色和红色小点在地图上表示。

将鼠标移到小点上方,可查看气象台名称。

然后点击查看天气观测和预报。

如需切换地图:点击带黑十字的绿色按钮放大地图;点击带横线的绿色按钮缩小地图;或者点击绿色箭头查看邻近地区的地图。


METAR-TAF: